sensor_id;sensor_type;location;lat;lon;timestamp;P1;durP1;ratioP1;P2;durP2;ratioP2
26319;SDS011;14024;52.226;5.200;2023-07-20T00:00:11;3.72;;;2.63;;
26319;SDS011;14024;52.226;5.200;2023-07-20T00:02:38;2.88;;;2.03;;
26319;SDS011;14024;52.226;5.200;2023-07-20T00:05:04;3.65;;;1.95;;
26319;SDS011;14024;52.226;5.200;2023-07-20T00:07:31;3.25;;;2.10;;
26319;SDS011;14024;52.226;5.200;2023-07-20T00:09:57;3.65;;;2.15;;
26319;SDS011;14024;52.226;5.200;2023-07-20T00:12:23;2.05;;;1.52;;
26319;SDS011;14024;52.226;5.200;2023-07-20T00:14:49;1.88;;;1.67;;
26319;SDS011;14024;52.226;5.200;2023-07-20T00:17:18;2.08;;;1.80;;
26319;SDS011;14024;52.226;5.200;2023-07-20T00:19:44;3.35;;;1.80;;
26319;SDS011;14024;52.226;5.200;2023-07-20T00:22:10;2.65;;;1.73;;
26319;SDS011;14024;52.226;5.200;2023-07-20T00:24:38;1.88;;;1.60;;
26319;SDS011;14024;52.226;5.200;2023-07-20T00:27:04;1.77;;;1.60;;
26319;SDS011;14024;52.226;5.200;2023-07-20T00:29:30;1.67;;;1.58;;
26319;SDS011;14024;52.226;5.200;2023-07-20T00:31:56;5.15;;;1.90;;
26319;SDS011;14024;52.226;5.200;2023-07-20T00:34:23;1.95;;;1.60;;
26319;SDS011;14024;52.226;5.200;2023-07-20T00:36:49;2.97;;;1.90;;
26319;SDS011;14024;52.226;5.200;2023-07-20T00:39:15;2.90;;;2.00;;
26319;SDS011;14024;52.226;5.200;2023-07-20T00:41:41;2.22;;;1.85;;
26319;SDS011;14024;52.226;5.200;2023-07-20T00:44:07;3.95;;;1.85;;
26319;SDS011;14024;52.226;5.200;2023-07-20T00:46:33;2.50;;;1.80;;
26319;SDS011;14024;52.226;5.200;2023-07-20T00:48:59;2.28;;;2.05;;
26319;SDS011;14024;52.226;5.200;2023-07-20T00:51:26;3.20;;;2.33;;
26319;SDS011;14024;52.226;5.200;2023-07-20T00:53:52;2.88;;;1.92;;
26319;SDS011;14024;52.226;5.200;2023-07-20T00:56:18;3.88;;;2.47;;
26319;SDS011;14024;52.226;5.200;2023-07-20T00:58:45;2.30;;;1.92;;
26319;SDS011;14024;52.226;5.200;2023-07-20T01:01:11;4.13;;;2.20;;
26319;SDS011;14024;52.226;5.200;2023-07-20T01:03:37;3.95;;;2.25;;
26319;SDS011;14024;52.226;5.200;2023-07-20T01:06:40;3.95;;;2.38;;
26319;SDS011;14024;52.226;5.200;2023-07-20T01:09:05;4.22;;;2.72;;
26319;SDS011;14024;52.226;5.200;2023-07-20T01:13:59;7.57;;;2.88;;
26319;SDS011;14024;52.226;5.200;2023-07-20T01:16:25;3.78;;;2.95;;
26319;SDS011;14024;52.226;5.200;2023-07-20T01:18:51;3.78;;;2.80;;
26319;SDS011;14024;52.226;5.200;2023-07-20T01:21:29;11.32;;;2.53;;
26319;SDS011;14024;52.226;5.200;2023-07-20T01:29:11;4.72;;;3.17;;
26319;SDS011;14024;52.226;5.200;2023-07-20T01:31:43;4.15;;;3.20;;
26319;SDS011;14024;52.226;5.200;2023-07-20T01:34:10;4.70;;;3.33;;
26319;SDS011;14024;52.226;5.200;2023-07-20T01:36:39;5.15;;;3.38;;
26319;SDS011;14024;52.226;5.200;2023-07-20T01:39:06;5.63;;;3.28;;
26319;SDS011;14024;52.226;5.200;2023-07-20T01:41:32;3.55;;;3.00;;
26319;SDS011;14024;52.226;5.200;2023-07-20T01:43:58;3.53;;;2.90;;
26319;SDS011;14024;52.226;5.200;2023-07-20T01:46:24;4.30;;;3.00;;
26319;SDS011;14024;52.226;5.200;2023-07-20T01:48:51;6.70;;;3.22;;
26319;SDS011;14024;52.226;5.200;2023-07-20T01:51:17;4.35;;;3.17;;
26319;SDS011;14024;52.226;5.200;2023-07-20T01:53:43;6.93;;;2.97;;
26319;SDS011;14024;52.226;5.200;2023-07-20T01:56:09;3.90;;;3.17;;
26319;SDS011;14024;52.226;5.200;2023-07-20T01:58:37;6.63;;;3.25;;
26319;SDS011;14024;52.226;5.200;2023-07-20T02:01:03;6.82;;;3.42;;
26319;SDS011;14024;52.226;5.200;2023-07-20T02:03:29;5.95;;;3.38;;
26319;SDS011;14024;52.226;5.200;2023-07-20T02:05:55;4.57;;;3.42;;
26319;SDS011;14024;52.226;5.200;2023-07-20T02:08:22;8.40;;;4.35;;
26319;SDS011;14024;52.226;5.200;2023-07-20T02:10:48;6.35;;;3.85;;
26319;SDS011;14024;52.226;5.200;2023-07-20T02:13:14;6.53;;;3.50;;
26319;SDS011;14024;52.226;5.200;2023-07-20T02:15:41;5.95;;;3.50;;
26319;SDS011;14024;52.226;5.200;2023-07-20T02:18:07;11.27;;;3.90;;
26319;SDS011;14024;52.226;5.200;2023-07-20T02:20:34;6.38;;;3.65;;
26319;SDS011;14024;52.226;5.200;2023-07-20T02:23:00;6.57;;;3.30;;
26319;SDS011;14024;52.226;5.200;2023-07-20T02:25:26;4.80;;;3.30;;
26319;SDS011;14024;52.226;5.200;2023-07-20T02:27:52;8.10;;;4.07;;
26319;SDS011;14024;52.226;5.200;2023-07-20T02:30:18;5.07;;;3.45;;
26319;SDS011;14024;52.226;5.200;2023-07-20T02:32:44;5.18;;;3.60;;
26319;SDS011;14024;52.226;5.200;2023-07-20T02:35:13;6.60;;;3.72;;
26319;SDS011;14024;52.226;5.200;2023-07-20T02:37:39;9.25;;;3.72;;
26319;SDS011;14024;52.226;5.200;2023-07-20T02:40:05;3.85;;;3.28;;
26319;SDS011;14024;52.226;5.200;2023-07-20T02:42:32;5.65;;;3.60;;
26319;SDS011;14024;52.226;5.200;2023-07-20T02:44:58;5.35;;;4.00;;
26319;SDS011;14024;52.226;5.200;2023-07-20T02:47:24;7.00;;;3.90;;
26319;SDS011;14024;52.226;5.200;2023-07-20T02:49:51;5.10;;;3.72;;
26319;SDS011;14024;52.226;5.200;2023-07-20T02:52:17;7.00;;;4.00;;
26319;SDS011;14024;52.226;5.200;2023-07-20T02:54:43;6.25;;;4.47;;
26319;SDS011;14024;52.226;5.200;2023-07-20T02:57:09;6.28;;;4.18;;
26319;SDS011;14024;52.226;5.200;2023-07-20T02:59:35;8.95;;;4.45;;
26319;SDS011;14024;52.226;5.200;2023-07-20T03:02:00;6.30;;;4.28;;
26319;SDS011;14024;52.226;5.200;2023-07-20T03:04:26;8.82;;;5.03;;
26319;SDS011;14024;52.226;5.200;2023-07-20T03:06:53;8.38;;;4.85;;
26319;SDS011;14024;52.226;5.200;2023-07-20T03:09:19;6.28;;;4.75;;
26319;SDS011;14024;52.226;5.200;2023-07-20T03:11:45;9.55;;;5.85;;
26319;SDS011;14024;52.226;5.200;2023-07-20T03:14:11;6.32;;;4.57;;
26319;SDS011;14024;52.226;5.200;2023-07-20T03:16:37;9.02;;;5.15;;
26319;SDS011;14024;52.226;5.200;2023-07-20T03:19:04;9.43;;;4.75;;
26319;SDS011;14024;52.226;5.200;2023-07-20T03:21:30;7.72;;;5.00;;
26319;SDS011;14024;52.226;5.200;2023-07-20T03:23:56;8.48;;;4.88;;
26319;SDS011;14024;52.226;5.200;2023-07-20T03:26:22;8.60;;;4.80;;
26319;SDS011;14024;52.226;5.200;2023-07-20T03:28:48;6.40;;;4.55;;
26319;SDS011;14024;52.226;5.200;2023-07-20T03:31:14;5.97;;;4.60;;
26319;SDS011;14024;52.226;5.200;2023-07-20T03:33:40;6.15;;;4.60;;
26319;SDS011;14024;52.226;5.200;2023-07-20T03:36:07;8.07;;;4.80;;
26319;SDS011;14024;52.226;5.200;2023-07-20T03:38:35;8.15;;;4.80;;
26319;SDS011;14024;52.226;5.200;2023-07-20T03:41:01;7.40;;;4.10;;
26319;SDS011;14024;52.226;5.200;2023-07-20T03:43:27;6.18;;;4.63;;
26319;SDS011;14024;52.226;5.200;2023-07-20T03:45:53;6.20;;;3.90;;
26319;SDS011;14024;52.226;5.200;2023-07-20T03:48:20;6.15;;;4.30;;
26319;SDS011;14024;52.226;5.200;2023-07-20T03:50:47;5.70;;;4.13;;
26319;SDS011;14024;52.226;5.200;2023-07-20T03:53:14;5.97;;;4.00;;
26319;SDS011;14024;52.226;5.200;2023-07-20T03:55:40;6.50;;;4.60;;
26319;SDS011;14024;52.226;5.200;2023-07-20T03:58:07;6.88;;;4.20;;
26319;SDS011;14024;52.226;5.200;2023-07-20T04:00:33;6.15;;;4.18;;
26319;SDS011;14024;52.226;5.200;2023-07-20T04:03:00;5.70;;;4.50;;
26319;SDS011;14024;52.226;5.200;2023-07-20T04:05:26;5.93;;;3.92;;
26319;SDS011;14024;52.226;5.200;2023-07-20T04:07:52;5.82;;;3.78;;
26319;SDS011;14024;52.226;5.200;2023-07-20T04:10:18;7.88;;;3.83;;
26319;SDS011;14024;52.226;5.200;2023-07-20T04:12:45;4.97;;;3.95;;
26319;SDS011;14024;52.226;5.200;2023-07-20T04:15:14;4.90;;;3.33;;
26319;SDS011;14024;52.226;5.200;2023-07-20T04:17:40;4.50;;;3.28;;
26319;SDS011;14024;52.226;5.200;2023-07-20T04:20:06;7.50;;;3.50;;
26319;SDS011;14024;52.226;5.200;2023-07-20T04:22:33;5.22;;;3.15;;
26319;SDS011;14024;52.226;5.200;2023-07-20T04:24:59;5.47;;;3.30;;
26319;SDS011;14024;52.226;5.200;2023-07-20T04:27:25;5.57;;;3.40;;
26319;SDS011;14024;52.226;5.200;2023-07-20T04:29:51;8.00;;;3.42;;
26319;SDS011;14024;52.226;5.200;2023-07-20T04:32:17;5.22;;;3.28;;
26319;SDS011;14024;52.226;5.200;2023-07-20T04:34:43;5.43;;;3.40;;
26319;SDS011;14024;52.226;5.200;2023-07-20T04:37:09;5.45;;;3.40;;
26319;SDS011;14024;52.226;5.200;2023-07-20T04:39:35;8.52;;;3.40;;
26319;SDS011;14024;52.226;5.200;2023-07-20T04:42:01;5.20;;;3.88;;
26319;SDS011;14024;52.226;5.200;2023-07-20T04:44:28;6.65;;;3.58;;
26319;SDS011;14024;52.226;5.200;2023-07-20T04:46:54;6.90;;;3.60;;
26319;SDS011;14024;52.226;5.200;2023-07-20T04:49:20;6.60;;;3.70;;
26319;SDS011;14024;52.226;5.200;2023-07-20T04:51:46;7.22;;;4.32;;
26319;SDS011;14024;52.226;5.200;2023-07-20T04:54:12;5.32;;;4.00;;
26319;SDS011;14024;52.226;5.200;2023-07-20T04:56:38;6.38;;;3.63;;
26319;SDS011;14024;52.226;5.200;2023-07-20T04:59:04;5.65;;;3.20;;
26319;SDS011;14024;52.226;5.200;2023-07-20T05:01:30;4.78;;;3.58;;
26319;SDS011;14024;52.226;5.200;2023-07-20T05:03:57;6.50;;;3.25;;
26319;SDS011;14024;52.226;5.200;2023-07-20T05:06:23;5.38;;;2.78;;
26319;SDS011;14024;52.226;5.200;2023-07-20T05:08:49;3.20;;;2.80;;
26319;SDS011;14024;52.226;5.200;2023-07-20T05:11:15;6.43;;;3.38;;
26319;SDS011;14024;52.226;5.200;2023-07-20T05:13:41;3.97;;;2.72;;
26319;SDS011;14024;52.226;5.200;2023-07-20T05:16:07;9.23;;;2.92;;
26319;SDS011;14024;52.226;5.200;2023-07-20T05:18:33;3.40;;;2.50;;
26319;SDS011;14024;52.226;5.200;2023-07-20T05:20:59;4.55;;;2.60;;
26319;SDS011;14024;52.226;5.200;2023-07-20T05:23:26;5.38;;;2.47;;
26319;SDS011;14024;52.226;5.200;2023-07-20T05:25:56;4.25;;;2.20;;
26319;SDS011;14024;52.226;5.200;2023-07-20T05:28:23;3.05;;;2.35;;
26319;SDS011;14024;52.226;5.200;2023-07-20T05:30:49;5.68;;;2.38;;
26319;SDS011;14024;52.226;5.200;2023-07-20T05:33:16;5.85;;;2.60;;
26319;SDS011;14024;52.226;5.200;2023-07-20T05:35:42;3.83;;;2.17;;
26319;SDS011;14024;52.226;5.200;2023-07-20T05:38:08;3.80;;;2.08;;
26319;SDS011;14024;52.226;5.200;2023-07-20T05:40:37;3.10;;;2.22;;
26319;SDS011;14024;52.226;5.200;2023-07-20T05:43:03;3.40;;;2.28;;
26319;SDS011;14024;52.226;5.200;2023-07-20T05:45:29;5.35;;;2.22;;
26319;SDS011;14024;52.226;5.200;2023-07-20T05:47:55;4.43;;;2.15;;
26319;SDS011;14024;52.226;5.200;2023-07-20T05:50:21;4.63;;;2.40;;
26319;SDS011;14024;52.226;5.200;2023-07-20T05:52:47;3.83;;;2.20;;
26319;SDS011;14024;52.226;5.200;2023-07-20T05:55:13;5.70;;;2.28;;
26319;SDS011;14024;52.226;5.200;2023-07-20T05:57:39;11.18;;;2.55;;
26319;SDS011;14024;52.226;5.200;2023-07-20T06:00:07;4.93;;;2.08;;
26319;SDS011;14024;52.226;5.200;2023-07-20T06:02:34;5.35;;;2.20;;
26319;SDS011;14024;52.226;5.200;2023-07-20T06:05:00;3.28;;;2.05;;
26319;SDS011;14024;52.226;5.200;2023-07-20T06:07:26;6.20;;;2.10;;
26319;SDS011;14024;52.226;5.200;2023-07-20T06:09:53;4.57;;;1.75;;
26319;SDS011;14024;52.226;5.200;2023-07-20T06:12:19;3.13;;;1.90;;
26319;SDS011;14024;52.226;5.200;2023-07-20T06:14:45;1.90;;;1.60;;
26319;SDS011;14024;52.226;5.200;2023-07-20T06:17:11;3.22;;;1.80;;
26319;SDS011;14024;52.226;5.200;2023-07-20T06:19:37;3.10;;;1.70;;
26319;SDS011;14024;52.226;5.200;2023-07-20T06:22:03;3.95;;;1.80;;
26319;SDS011;14024;52.226;5.200;2023-07-20T06:24:29;4.03;;;1.60;;
26319;SDS011;14024;52.226;5.200;2023-07-20T06:26:55;3.30;;;1.65;;
26319;SDS011;14024;52.226;5.200;2023-07-20T06:29:21;2.75;;;1.63;;
26319;SDS011;14024;52.226;5.200;2023-07-20T06:31:47;4.75;;;1.70;;
26319;SDS011;14024;52.226;5.200;2023-07-20T06:34:13;7.82;;;1.60;;
26319;SDS011;14024;52.226;5.200;2023-07-20T06:36:39;5.72;;;1.40;;
26319;SDS011;14024;52.226;5.200;2023-07-20T06:39:06;4.10;;;1.83;;
26319;SDS011;14024;52.226;5.200;2023-07-20T06:41:32;2.45;;;1.80;;
26319;SDS011;14024;52.226;5.200;2023-07-20T06:43:58;1.83;;;1.60;;
26319;SDS011;14024;52.226;5.200;2023-07-20T06:46:25;2.90;;;1.52;;
26319;SDS011;14024;52.226;5.200;2023-07-20T06:48:51;2.22;;;1.30;;
26319;SDS011;14024;52.226;5.200;2023-07-20T06:51:18;5.68;;;1.50;;
26319;SDS011;14024;52.226;5.200;2023-07-20T06:53:44;3.72;;;1.42;;
26319;SDS011;14024;52.226;5.200;2023-07-20T06:56:11;4.28;;;1.30;;
26319;SDS011;14024;52.226;5.200;2023-07-20T06:58:37;2.33;;;1.20;;
26319;SDS011;14024;52.226;5.200;2023-07-20T07:01:07;2.15;;;1.30;;
26319;SDS011;14024;52.226;5.200;2023-07-20T07:03:33;3.70;;;1.30;;
26319;SDS011;14024;52.226;5.200;2023-07-20T07:05:59;1.60;;;1.15;;
26319;SDS011;14024;52.226;5.200;2023-07-20T07:08:25;4.95;;;1.45;;
26319;SDS011;14024;52.226;5.200;2023-07-20T07:10:51;2.95;;;1.27;;
26319;SDS011;14024;52.226;5.200;2023-07-20T07:13:18;2.25;;;1.20;;
26319;SDS011;14024;52.226;5.200;2023-07-20T07:15:44;1.83;;;1.20;;
26319;SDS011;14024;52.226;5.200;2023-07-20T07:18:11;2.15;;;1.48;;
26319;SDS011;14024;52.226;5.200;2023-07-20T07:20:37;4.80;;;1.20;;
26319;SDS011;14024;52.226;5.200;2023-07-20T07:23:03;5.13;;;1.23;;
26319;SDS011;14024;52.226;5.200;2023-07-20T07:25:29;1.23;;;1.10;;
26319;SDS011;14024;52.226;5.200;2023-07-20T07:27:57;6.63;;;1.20;;
26319;SDS011;14024;52.226;5.200;2023-07-20T07:30:23;1.33;;;0.90;;
26319;SDS011;14024;52.226;5.200;2023-07-20T07:32:49;2.88;;;1.02;;
26319;SDS011;14024;52.226;5.200;2023-07-20T07:35:15;3.65;;;1.30;;
26319;SDS011;14024;52.226;5.200;2023-07-20T07:37:41;1.65;;;1.10;;
26319;SDS011;14024;52.226;5.200;2023-07-20T07:40:07;1.48;;;1.20;;
26319;SDS011;14024;52.226;5.200;2023-07-20T07:42:33;0.93;;;0.90;;
26319;SDS011;14024;52.226;5.200;2023-07-20T07:44:59;1.58;;;0.93;;
26319;SDS011;14024;52.226;5.200;2023-07-20T07:47:25;2.17;;;1.00;;
26319;SDS011;14024;52.226;5.200;2023-07-20T07:49:51;0.73;;;0.73;;
26319;SDS011;14024;52.226;5.200;2023-07-20T07:52:17;2.92;;;1.10;;
26319;SDS011;14024;52.226;5.200;2023-07-20T07:54:43;4.32;;;1.10;;
26319;SDS011;14024;52.226;5.200;2023-07-20T07:57:09;2.45;;;1.17;;
26319;SDS011;14024;52.226;5.200;2023-07-20T07:59:35;5.22;;;0.90;;
26319;SDS011;14024;52.226;5.200;2023-07-20T08:02:04;1.75;;;0.93;;
26319;SDS011;14024;52.226;5.200;2023-07-20T08:04:30;1.80;;;1.00;;
26319;SDS011;14024;52.226;5.200;2023-07-20T08:06:56;1.13;;;0.98;;
26319;SDS011;14024;52.226;5.200;2023-07-20T08:09:22;2.42;;;1.13;;
26319;SDS011;14024;52.226;5.200;2023-07-20T08:11:48;1.30;;;1.00;;
26319;SDS011;14024;52.226;5.200;2023-07-20T08:14:14;1.40;;;0.90;;
26319;SDS011;14024;52.226;5.200;2023-07-20T08:16:40;3.88;;;0.90;;
26319;SDS011;14024;52.226;5.200;2023-07-20T08:19:08;0.98;;;0.80;;
26319;SDS011;14024;52.226;5.200;2023-07-20T08:21:34;0.82;;;0.80;;
26319;SDS011;14024;52.226;5.200;2023-07-20T08:24:00;6.63;;;1.50;;
26319;SDS011;14024;52.226;5.200;2023-07-20T08:26:26;1.25;;;0.95;;
26319;SDS011;14024;52.226;5.200;2023-07-20T08:28:52;7.57;;;1.00;;
26319;SDS011;14024;52.226;5.200;2023-07-20T08:31:18;1.63;;;1.00;;
26319;SDS011;14024;52.226;5.200;2023-07-20T08:33:45;2.67;;;1.00;;
26319;SDS011;14024;52.226;5.200;2023-07-20T08:36:11;1.02;;;1.00;;
26319;SDS011;14024;52.226;5.200;2023-07-20T08:38:37;4.13;;;1.10;;
26319;SDS011;14024;52.226;5.200;2023-07-20T08:41:03;5.43;;;1.00;;
26319;SDS011;14024;52.226;5.200;2023-07-20T08:43:29;1.35;;;1.10;;
26319;SDS011;14024;52.226;5.200;2023-07-20T08:45:56;1.13;;;0.90;;
26319;SDS011;14024;52.226;5.200;2023-07-20T08:48:22;1.20;;;0.98;;
26319;SDS011;14024;52.226;5.200;2023-07-20T08:50:53;1.02;;;0.93;;
26319;SDS011;14024;52.226;5.200;2023-07-20T08:53:20;1.10;;;0.75;;
26319;SDS011;14024;52.226;5.200;2023-07-20T08:55:46;2.25;;;1.00;;
26319;SDS011;14024;52.226;5.200;2023-07-20T08:58:14;1.15;;;0.90;;
26319;SDS011;14024;52.226;5.200;2023-07-20T09:00:41;1.40;;;1.00;;
26319;SDS011;14024;52.226;5.200;2023-07-20T09:03:07;1.25;;;1.00;;
26319;SDS011;14024;52.226;5.200;2023-07-20T09:05:34;1.63;;;0.82;;
26319;SDS011;14024;52.226;5.200;2023-07-20T09:08:01;2.75;;;0.95;;
26319;SDS011;14024;52.226;5.200;2023-07-20T09:10:29;2.03;;;1.30;;
26319;SDS011;14024;52.226;5.200;2023-07-20T09:12:55;2.63;;;0.80;;
26319;SDS011;14024;52.226;5.200;2023-07-20T09:15:21;1.20;;;0.88;;
26319;SDS011;14024;52.226;5.200;2023-07-20T09:17:51;1.20;;;0.85;;
26319;SDS011;14024;52.226;5.200;2023-07-20T09:20:19;1.00;;;0.80;;
26319;SDS011;14024;52.226;5.200;2023-07-20T09:22:45;1.48;;;1.00;;
26319;SDS011;14024;52.226;5.200;2023-07-20T09:25:13;0.75;;;0.75;;
26319;SDS011;14024;52.226;5.200;2023-07-20T09:27:40;1.02;;;0.70;;
26319;SDS011;14024;52.226;5.200;2023-07-20T09:30:06;2.63;;;0.82;;
26319;SDS011;14024;52.226;5.200;2023-07-20T09:32:40;1.55;;;0.80;;
26319;SDS011;14024;52.226;5.200;2023-07-20T09:35:06;1.63;;;0.77;;
26319;SDS011;14024;52.226;5.200;2023-07-20T09:37:33;2.45;;;0.90;;
26319;SDS011;14024;52.226;5.200;2023-07-20T09:39:59;0.73;;;0.73;;
26319;SDS011;14024;52.226;5.200;2023-07-20T09:42:25;0.88;;;0.75;;
26319;SDS011;14024;52.226;5.200;2023-07-20T09:44:52;2.17;;;0.90;;
26319;SDS011;14024;52.226;5.200;2023-07-20T09:47:21;1.98;;;0.90;;
26319;SDS011;14024;52.226;5.200;2023-07-20T09:49:47;1.23;;;0.57;;
26319;SDS011;14024;52.226;5.200;2023-07-20T09:52:14;0.63;;;0.63;;
26319;SDS011;14024;52.226;5.200;2023-07-20T09:54:40;3.35;;;0.77;;
26319;SDS011;14024;52.226;5.200;2023-07-20T09:57:07;1.08;;;0.70;;
26319;SDS011;14024;52.226;5.200;2023-07-20T09:59:37;1.40;;;0.60;;
26319;SDS011;14024;52.226;5.200;2023-07-20T10:02:05;1.42;;;0.85;;
26319;SDS011;14024;52.226;5.200;2023-07-20T10:04:36;1.23;;;0.52;;
26319;SDS011;14024;52.226;5.200;2023-07-20T10:07:02;1.55;;;0.77;;
26319;SDS011;14024;52.226;5.200;2023-07-20T10:09:30;0.95;;;0.70;;
26319;SDS011;14024;52.226;5.200;2023-07-20T10:11:57;1.35;;;0.77;;
26319;SDS011;14024;52.226;5.200;2023-07-20T10:14:25;1.63;;;0.75;;
26319;SDS011;14024;52.226;5.200;2023-07-20T10:16:57;1.58;;;1.20;;
26319;SDS011;14024;52.226;5.200;2023-07-20T10:19:29;1.33;;;1.05;;
26319;SDS011;14024;52.226;5.200;2023-07-20T10:22:23;1.20;;;0.80;;
26319;SDS011;14024;52.226;5.200;2023-07-20T10:24:46;1.98;;;1.00;;
26319;SDS011;14024;52.226;5.200;2023-07-20T10:27:13;1.27;;;1.17;;
26319;SDS011;14024;52.226;5.200;2023-07-20T10:29:40;3.53;;;1.00;;
26319;SDS011;14024;52.226;5.200;2023-07-20T10:32:07;1.63;;;1.00;;
26319;SDS011;14024;52.226;5.200;2023-07-20T10:34:33;1.67;;;1.17;;
26319;SDS011;14024;52.226;5.200;2023-07-20T10:36:59;1.88;;;1.30;;
26319;SDS011;14024;52.226;5.200;2023-07-20T10:39:26;1.85;;;1.30;;
26319;SDS011;14024;52.226;5.200;2023-07-20T10:42:02;0.80;;;0.80;;
26319;SDS011;14024;52.226;5.200;2023-07-20T10:44:29;2.75;;;1.00;;
26319;SDS011;14024;52.226;5.200;2023-07-20T10:47:02;1.02;;;0.90;;
26319;SDS011;14024;52.226;5.200;2023-07-20T10:49:32;0.85;;;0.80;;
26319;SDS011;14024;52.226;5.200;2023-07-20T10:51:59;1.10;;;1.00;;
26319;SDS011;14024;52.226;5.200;2023-07-20T10:56:51;1.65;;;1.25;;
26319;SDS011;14024;52.226;5.200;2023-07-20T10:59:18;3.13;;;1.25;;
26319;SDS011;14024;52.226;5.200;2023-07-20T11:01:45;3.03;;;1.42;;
26319;SDS011;14024;52.226;5.200;2023-07-20T11:04:12;1.27;;;1.10;;
26319;SDS011;14024;52.226;5.200;2023-07-20T11:06:41;1.40;;;1.05;;
26319;SDS011;14024;52.226;5.200;2023-07-20T11:09:11;1.98;;;1.10;;
26319;SDS011;14024;52.226;5.200;2023-07-20T11:11:41;4.88;;;1.50;;
26319;SDS011;14024;52.226;5.200;2023-07-20T11:14:19;4.47;;;1.50;;
26319;SDS011;14024;52.226;5.200;2023-07-20T11:16:46;3.72;;;1.80;;
26319;SDS011;14024;52.226;5.200;2023-07-20T11:19:14;2.17;;;1.45;;
26319;SDS011;14024;52.226;5.200;2023-07-20T11:21:43;5.50;;;1.25;;
26319;SDS011;14024;52.226;5.200;2023-07-20T11:24:10;1.75;;;1.20;;
26319;SDS011;14024;52.226;5.200;2023-07-20T11:26:56;1.92;;;1.33;;
26319;SDS011;14024;52.226;5.200;2023-07-20T11:29:23;1.58;;;1.20;;
26319;SDS011;14024;52.226;5.200;2023-07-20T11:31:50;2.35;;;1.33;;
26319;SDS011;14024;52.226;5.200;2023-07-20T11:34:17;2.67;;;1.40;;
26319;SDS011;14024;52.226;5.200;2023-07-20T11:36:44;1.50;;;1.40;;
26319;SDS011;14024;52.226;5.200;2023-07-20T11:39:10;2.90;;;1.80;;
26319;SDS011;14024;52.226;5.200;2023-07-20T11:41:37;2.00;;;1.20;;
26319;SDS011;14024;52.226;5.200;2023-07-20T11:44:05;2.00;;;1.52;;
26319;SDS011;14024;52.226;5.200;2023-07-20T11:46:37;3.60;;;1.65;;
26319;SDS011;14024;52.226;5.200;2023-07-20T11:49:04;2.60;;;1.52;;
26319;SDS011;14024;52.226;5.200;2023-07-20T11:51:31;2.55;;;1.65;;
26319;SDS011;14024;52.226;5.200;2023-07-20T11:53:57;3.97;;;1.77;;
26319;SDS011;14024;52.226;5.200;2023-07-20T11:56:24;3.70;;;1.70;;
26319;SDS011;14024;52.226;5.200;2023-07-20T11:58:54;6.40;;;1.52;;
26319;SDS011;14024;52.226;5.200;2023-07-20T12:01:21;4.15;;;1.60;;
26319;SDS011;14024;52.226;5.200;2023-07-20T12:03:47;3.33;;;1.63;;
26319;SDS011;14024;52.226;5.200;2023-07-20T12:06:14;1.65;;;1.20;;
26319;SDS011;14024;52.226;5.200;2023-07-20T12:08:43;2.17;;;1.33;;
26319;SDS011;14024;52.226;5.200;2023-07-20T12:11:10;1.80;;;1.42;;
26319;SDS011;14024;52.226;5.200;2023-07-20T12:13:43;2.58;;;1.55;;
26319;SDS011;14024;52.226;5.200;2023-07-20T12:16:13;3.65;;;1.77;;
26319;SDS011;14024;52.226;5.200;2023-07-20T12:18:39;2.15;;;1.40;;
26319;SDS011;14024;52.226;5.200;2023-07-20T12:21:05;2.47;;;1.63;;
26319;SDS011;14024;52.226;5.200;2023-07-20T12:23:37;3.25;;;1.45;;
26319;SDS011;14024;52.226;5.200;2023-07-20T12:26:05;4.93;;;1.70;;
26319;SDS011;14024;52.226;5.200;2023-07-20T12:28:32;3.78;;;1.80;;
26319;SDS011;14024;52.226;5.200;2023-07-20T12:30:58;1.80;;;1.33;;
26319;SDS011;14024;52.226;5.200;2023-07-20T12:33:24;1.95;;;1.60;;
26319;SDS011;14024;52.226;5.200;2023-07-20T12:35:50;3.70;;;1.40;;
26319;SDS011;14024;52.226;5.200;2023-07-20T12:38:20;2.22;;;1.48;;
26319;SDS011;14024;52.226;5.200;2023-07-20T12:40:47;1.85;;;1.42;;
26319;SDS011;14024;52.226;5.200;2023-07-20T12:43:13;2.13;;;1.48;;
26319;SDS011;14024;52.226;5.200;2023-07-20T12:45:39;2.30;;;1.52;;
26319;SDS011;14024;52.226;5.200;2023-07-20T12:48:06;2.45;;;1.50;;
26319;SDS011;14024;52.226;5.200;2023-07-20T12:50:32;2.88;;;1.73;;
26319;SDS011;14024;52.226;5.200;2023-07-20T12:52:58;2.03;;;1.05;;
26319;SDS011;14024;52.226;5.200;2023-07-20T12:55:24;2.80;;;1.70;;
26319;SDS011;14024;52.226;5.200;2023-07-20T12:57:50;1.40;;;1.20;;
26319;SDS011;14024;52.226;5.200;2023-07-20T13:00:17;2.67;;;1.85;;
26319;SDS011;14024;52.226;5.200;2023-07-20T13:02:43;3.15;;;1.70;;
26319;SDS011;14024;52.226;5.200;2023-07-20T13:05:09;3.25;;;1.52;;
26319;SDS011;14024;52.226;5.200;2023-07-20T13:07:37;2.53;;;1.60;;
26319;SDS011;14024;52.226;5.200;2023-07-20T13:10:04;2.03;;;1.58;;
26319;SDS011;14024;52.226;5.200;2023-07-20T13:12:32;3.22;;;1.15;;
26319;SDS011;14024;52.226;5.200;2023-07-20T13:14:59;2.58;;;1.45;;
26319;SDS011;14024;52.226;5.200;2023-07-20T13:17:26;5.22;;;1.30;;
26319;SDS011;14024;52.226;5.200;2023-07-20T13:19:52;4.03;;;1.42;;
26319;SDS011;14024;52.226;5.200;2023-07-20T13:22:18;1.25;;;1.10;;
26319;SDS011;14024;52.226;5.200;2023-07-20T13:24:45;8.75;;;1.40;;
26319;SDS011;14024;52.226;5.200;2023-07-20T13:27:15;1.08;;;1.05;;
26319;SDS011;14024;52.226;5.200;2023-07-20T13:29:41;3.80;;;1.83;;
26319;SDS011;14024;52.226;5.200;2023-07-20T13:32:07;5.43;;;1.30;;
26319;SDS011;14024;52.226;5.200;2023-07-20T13:34:33;1.98;;;1.20;;
26319;SDS011;14024;52.226;5.200;2023-07-20T13:37:00;2.58;;;1.30;;
26319;SDS011;14024;52.226;5.200;2023-07-20T13:39:26;3.92;;;1.27;;
26319;SDS011;14024;52.226;5.200;2023-07-20T13:41:52;1.35;;;1.00;;
26319;SDS011;14024;52.226;5.200;2023-07-20T13:44:22;3.90;;;1.00;;
26319;SDS011;14024;52.226;5.200;2023-07-20T13:46:48;2.55;;;1.10;;
26319;SDS011;14024;52.226;5.200;2023-07-20T13:49:14;2.00;;;1.00;;
26319;SDS011;14024;52.226;5.200;2023-07-20T13:51:43;0.93;;;0.80;;
26319;SDS011;14024;52.226;5.200;2023-07-20T13:54:09;3.78;;;1.30;;
26319;SDS011;14024;52.226;5.200;2023-07-20T13:56:36;2.03;;;0.90;;
26319;SDS011;14024;52.226;5.200;2023-07-20T13:59:02;1.05;;;0.90;;
26319;SDS011;14024;52.226;5.200;2023-07-20T14:01:32;2.03;;;1.00;;
26319;SDS011;14024;52.226;5.200;2023-07-20T14:06:29;1.33;;;1.00;;
26319;SDS011;14024;52.226;5.200;2023-07-20T14:08:56;2.65;;;1.20;;
26319;SDS011;14024;52.226;5.200;2023-07-20T14:11:22;2.08;;;1.40;;
26319;SDS011;14024;52.226;5.200;2023-07-20T14:13:49;4.45;;;1.40;;
26319;SDS011;14024;52.226;5.200;2023-07-20T14:16:16;3.88;;;1.60;;
26319;SDS011;14024;52.226;5.200;2023-07-20T14:18:42;1.90;;;1.25;;
26319;SDS011;14024;52.226;5.200;2023-07-20T14:21:11;11.68;;;1.50;;
26319;SDS011;14024;52.226;5.200;2023-07-20T14:23:37;1.10;;;1.00;;
26319;SDS011;14024;52.226;5.200;2023-07-20T14:26:03;1.80;;;1.17;;
26319;SDS011;14024;52.226;5.200;2023-07-20T14:28:34;1.98;;;1.02;;
26319;SDS011;14024;52.226;5.200;2023-07-20T14:31:00;3.08;;;1.02;;
26319;SDS011;14024;52.226;5.200;2023-07-20T14:33:26;1.75;;;1.30;;
26319;SDS011;14024;52.226;5.200;2023-07-20T14:35:52;1.40;;;1.10;;
26319;SDS011;14024;52.226;5.200;2023-07-20T14:38:19;0.98;;;0.88;;
26319;SDS011;14024;52.226;5.200;2023-07-20T14:40:45;2.95;;;1.20;;
26319;SDS011;14024;52.226;5.200;2023-07-20T14:43:11;1.40;;;1.30;;
26319;SDS011;14024;52.226;5.200;2023-07-20T14:45:39;1.25;;;1.15;;
26319;SDS011;14024;52.226;5.200;2023-07-20T14:48:05;3.47;;;1.23;;
26319;SDS011;14024;52.226;5.200;2023-07-20T14:50:31;3.45;;;1.30;;
26319;SDS011;14024;52.226;5.200;2023-07-20T14:52:57;4.63;;;1.70;;
26319;SDS011;14024;52.226;5.200;2023-07-20T14:55:23;3.20;;;1.20;;
26319;SDS011;14024;52.226;5.200;2023-07-20T14:57:50;4.05;;;1.55;;